Time;durP1;ratioP1;P1;durP2;ratioP2;P2;SDS_P1;SDS_P2;PMS_P1;PMS_P2;Temp;Humidity;BMP_temperature;BMP_pressure;BME280_temperature;BME280_humidity;BME280_pressure;Samples;Min_cycle;Max_cycle;Signal;HPM_P1;HPM_P2
2021/05/18 00:00:19;;;;;;;2.47;2.20;;;13.10;99.90;;;;;;5095953;28;20465;-67
2021/05/18 00:02:46;;;;;;;2.37;2.17;;;13.10;99.90;;;;;;5096294;28;20781;-67
2021/05/18 00:05:15;;;;;;;5.93;1.90;;;13.00;99.90;;;;;;5096329;28;20480;-67
2021/05/18 00:07:47;;;;;;;4.20;2.17;;;13.00;99.90;;;;;;5096765;28;20454;-67
2021/05/18 00:12:59;;;;;;;2.83;1.80;;;12.90;99.90;;;;;;5097087;28;20483;-67
2021/05/18 00:15:25;;;;;;;1.97;1.67;;;12.90;99.90;;;;;;5095770;28;20461;-67
2021/05/18 00:17:52;;;;;;;4.83;1.90;;;12.90;99.90;;;;;;5095587;28;20747;-67
2021/05/18 00:20:19;;;;;;;2.47;2.27;;;12.90;99.90;;;;;;5097650;28;20533;-67
2021/05/18 00:22:46;;;;;;;2.00;1.90;;;12.80;99.90;;;;;;5096965;28;20457;-66
2021/05/18 00:25:14;;;;;;;2.17;1.83;;;12.80;99.90;;;;;;5095473;28;20454;-67
2021/05/18 00:27:41;;;;;;;2.80;1.80;;;12.70;99.90;;;;;;5096347;28;20534;-66
2021/05/18 00:30:10;;;;;;;6.27;2.13;;;12.70;99.90;;;;;;5096966;28;20804;-66
2021/05/18 00:32:39;;;;;;;2.10;1.90;;;12.70;99.90;;;;;;5095992;28;20476;-66
2021/05/18 00:35:07;;;;;;;2.40;2.20;;;12.60;99.90;;;;;;5096065;28;20493;-66
2021/05/18 00:37:33;;;;;;;1.90;1.60;;;12.60;99.90;;;;;;5097620;28;20488;-66
2021/05/18 00:40:00;;;;;;;1.97;1.50;;;12.60;99.90;;;;;;5097261;28;20469;-66
2021/05/18 00:42:26;;;;;;;2.20;2.00;;;12.50;99.90;;;;;;5096215;28;20943;-66
2021/05/18 00:44:54;;;;;;;2.63;1.83;;;12.50;99.90;;;;;;5096400;28;20465;-65
2021/05/18 00:47:21;;;;;;;2.00;1.60;;;12.50;99.90;;;;;;5095224;28;20460;-65
2021/05/18 00:49:47;;;;;;;1.93;1.60;;;12.50;99.90;;;;;;5095398;28;20548;-65
2021/05/18 00:52:15;;;;;;;4.23;1.90;;;12.50;99.90;;;;;;5095100;28;20457;-66
2021/05/18 00:54:45;;;;;;;2.13;1.53;;;12.50;99.90;;;;;;5095382;28;20453;-66
2021/05/18 00:59:55;;;;;;;1.80;1.50;;;12.50;99.90;;;;;;5074749;28;20456;-67
2021/05/18 01:02:24;;;;;;;2.40;1.67;;;12.50;99.90;;;;;;5095440;28;20510;-67
2021/05/18 01:04:56;;;;;;;2.10;1.90;;;12.50;99.90;;;;;;5094750;28;20449;-67
2021/05/18 01:07:22;;;;;;;2.17;1.70;;;12.50;99.90;;;;;;5094999;28;20430;-67
2021/05/18 01:09:48;;;;;;;2.10;1.63;;;12.40;99.90;;;;;;5095000;28;20545;-65
2021/05/18 01:12:15;;;;;;;2.70;1.50;;;12.40;99.90;;;;;;5094470;28;20200;-66
2021/05/18 01:14:41;;;;;;;1.70;1.60;;;12.40;99.90;;;;;;5094734;28;20449;-66
2021/05/18 01:17:07;;;;;;;5.43;1.57;;;12.40;99.90;;;;;;5094531;28;20464;-66
2021/05/18 01:19:34;;;;;;;1.80;1.70;;;12.30;99.90;;;;;;5094545;28;20465;-66
2021/05/18 01:22:02;;;;;;;1.90;1.70;;;12.30;99.90;;;;;;5094828;28;20514;-65
2021/05/18 01:24:29;;;;;;;2.37;1.97;;;12.30;99.90;;;;;;5095839;28;20596;-65
2021/05/18 01:26:55;;;;;;;2.03;1.80;;;12.30;99.90;;;;;;5098037;28;20456;-65
2021/05/18 01:29:24;;;;;;;2.10;1.90;;;12.30;99.90;;;;;;5097299;28;20449;-65
2021/05/18 01:31:51;;;;;;;2.10;1.90;;;12.20;99.90;;;;;;5099536;28;21053;-66
2021/05/18 01:34:18;;;;;;;2.30;1.80;;;12.20;99.90;;;;;;5098542;28;20517;-66
2021/05/18 01:36:45;;;;;;;2.80;1.77;;;12.10;99.90;;;;;;5099048;28;20453;-66
2021/05/18 01:39:31;;;;;;;2.37;1.77;;;12.10;99.90;;;;;;5100994;28;20477;-66
2021/05/18 01:44:41;;;;;;;2.13;1.83;;;12.00;99.90;;;;;;5101774;28;20491;-66
2021/05/18 01:47:10;;;;;;;2.00;1.80;;;12.00;99.90;;;;;;5098909;28;20457;-66
2021/05/18 01:49:36;;;;;;;2.27;2.07;;;12.00;99.90;;;;;;5098014;28;20465;-66
2021/05/18 01:52:07;;;;;;;3.50;2.03;;;11.90;99.90;;;;;;5098172;28;20536;-66
2021/05/18 01:54:37;;;;;;;2.50;1.90;;;11.90;99.90;;;;;;5098905;28;20506;-66
2021/05/18 01:57:17;;;;;;;2.30;2.10;;;11.90;99.90;;;;;;5097918;28;20548;-65
2021/05/18 01:59:44;;;;;;;2.37;1.80;;;11.90;99.90;;;;;;5098059;28;20540;-65
2021/05/18 02:02:10;;;;;;;3.53;2.10;;;11.90;99.90;;;;;;5097822;28;20453;-65
2021/05/18 02:04:39;;;;;;;2.10;1.90;;;11.90;99.90;;;;;;5097431;28;20945;-66
2021/05/18 02:07:09;;;;;;;2.03;1.83;;;11.80;99.90;;;;;;5097480;28;20526;-66
2021/05/18 02:09:38;;;;;;;2.60;1.83;;;11.80;99.90;;;;;;5097953;28;20459;-65
2021/05/18 02:12:06;;;;;;;2.57;2.30;;;11.70;99.90;;;;;;5101263;28;20526;-66
2021/05/18 02:14:34;;;;;;;2.00;1.80;;;11.70;99.90;;;;;;5100527;28;20453;-66
2021/05/18 02:17:05;;;;;;;2.03;1.83;;;11.70;99.90;;;;;;5098196;28;20453;-66
2021/05/18 02:25:22;;;;;;;2.00;1.80;;;11.50;99.90;;;;;;5098023;28;20850;-65
2021/05/18 02:27:48;;;;;;;2.03;1.93;;;11.50;99.90;;;;;;5097240;28;20456;-66
2021/05/18 02:30:16;;;;;;;2.40;2.17;;;11.50;99.90;;;;;;5097257;28;20465;-66
2021/05/18 02:32:43;;;;;;;3.40;1.90;;;11.40;99.90;;;;;;5096909;28;20473;-66
2021/05/18 02:35:13;;;;;;;2.33;2.00;;;11.40;99.90;;;;;;5097200;28;20453;-65
2021/05/18 02:37:40;;;;;;;2.77;1.90;;;11.40;99.90;;;;;;5096802;28;20473;-67
2021/05/18 02:40:08;;;;;;;2.00;1.90;;;11.40;99.90;;;;;;5096673;28;20549;-66
2021/05/18 02:42:35;;;;;;;2.90;1.80;;;11.40;99.90;;;;;;5097308;28;20474;-67
2021/05/18 02:45:05;;;;;;;2.30;2.10;;;11.30;99.90;;;;;;5097695;28;20469;-67
2021/05/18 02:50:16;;;;;;;3.20;2.07;;;11.30;99.90;;;;;;5098700;28;20799;-67
2021/05/18 02:52:43;;;;;;;2.50;2.30;;;11.30;99.90;;;;;;5098245;28;20457;-66
2021/05/18 02:55:13;;;;;;;2.10;1.90;;;11.20;99.90;;;;;;5096856;28;20453;-67
2021/05/18 02:57:43;;;;;;;2.20;2.00;;;11.20;99.90;;;;;;5096687;28;20476;-65
2021/05/18 03:00:11;;;;;;;2.43;2.00;;;11.20;99.90;;;;;;5097253;28;20468;-65
2021/05/18 03:02:37;;;;;;;2.87;2.20;;;11.20;99.90;;;;;;5096553;28;20473;-65
2021/05/18 03:05:05;;;;;;;2.43;2.23;;;11.20;99.90;;;;;;5095913;28;20453;-65
2021/05/18 03:07:31;;;;;;;2.50;2.23;;;11.20;99.90;;;;;;5096166;28;20464;-66
2021/05/18 03:09:57;;;;;;;2.63;2.43;;;11.20;99.90;;;;;;5096343;28;20465;-65
2021/05/18 03:12:24;;;;;;;2.50;1.90;;;11.20;99.90;;;;;;5096111;28;20461;-65
2021/05/18 03:14:51;;;;;;;2.37;1.97;;;11.10;99.90;;;;;;5096157;28;20457;-65
2021/05/18 03:17:19;;;;;;;2.30;2.10;;;11.10;99.90;;;;;;5095673;28;20472;-66
2021/05/18 03:19:45;;;;;;;2.70;2.10;;;11.10;99.90;;;;;;5095847;28;20506;-66
2021/05/18 03:22:12;;;;;;;2.70;2.10;;;11.10;99.90;;;;;;5095965;28;20445;-66
2021/05/18 03:24:41;;;;;;;3.73;2.37;;;11.10;99.90;;;;;;5096285;28;20468;-66
2021/05/18 03:27:09;;;;;;;2.73;2.53;;;11.10;99.90;;;;;;5096101;28;20533;-67
2021/05/18 03:29:35;;;;;;;2.40;2.20;;;11.10;99.90;;;;;;5096191;28;20502;-67
2021/05/18 03:34:47;;;;;;;2.27;2.00;;;11.10;99.90;;;;;;5095791;28;20487;-67
2021/05/18 03:37:18;;;;;;;2.67;2.30;;;11.10;99.90;;;;;;5095689;28;20445;-67
2021/05/18 03:39:46;;;;;;;2.40;2.20;;;11.10;99.90;;;;;;5096296;28;20798;-67
2021/05/18 03:42:15;;;;;;;3.10;1.73;;;11.10;99.90;;;;;;5095222;28;20939;-67
2021/05/18 03:44:56;;;;;;;2.13;1.93;;;11.20;99.90;;;;;;5095739;28;20944;-67
2021/05/18 03:53:04;;;;;;;1.97;1.83;;;11.20;99.90;;;;;;5095612;28;20509;-67
2021/05/18 04:03:50;;;;;;;2.63;2.43;;;11.40;99.90;;;;;;5095807;28;20893;-66
2021/05/18 04:17:16;;;;;;;2.60;2.40;;;11.50;99.90;;;;;;5095054;28;20508;-66
2021/05/18 04:19:47;;;;;;;2.93;2.63;;;11.60;99.90;;;;;;5095391;28;20458;-64
2021/05/18 04:22:31;;;;;;;2.40;2.20;;;11.70;99.90;;;;;;5094933;28;20503;-64
2021/05/18 04:39:07;;;;;;;3.50;3.20;;;11.90;99.90;;;;;;5053108;28;20482;-65
2021/05/18 04:50:23;;;;;;;3.30;3.00;;;12.00;99.90;;;;;;5094982;28;20486;-65
2021/05/18 04:52:57;;;;;;;2.77;2.40;;;12.00;99.90;;;;;;5095002;28;20437;-65
2021/05/18 05:00:54;;;;;;;5.80;3.20;;;12.10;99.90;;;;;;5095414;28;20457;-65
2021/05/18 05:03:53;;;;;;;4.63;3.30;;;12.20;99.90;;;;;;5095195;28;20457;-65
2021/05/18 05:06:24;;;;;;;5.27;3.70;;;12.20;99.90;;;;;;5097216;28;20870;-65
2021/05/18 05:08:57;;;;;;;5.23;3.40;;;12.20;99.90;;;;;;5094931;28;20521;-65
2021/05/18 05:14:16;;;;;;;4.80;3.60;;;12.20;99.90;;;;;;5098870;28;20420;-65
2021/05/18 05:16:43;;;;;;;4.63;4.23;;;12.20;99.90;;;;;;5098790;28;20441;-65
2021/05/18 05:19:09;;;;;;;4.43;4.03;;;12.10;99.90;;;;;;5098384;28;20855;-65
2021/05/18 05:21:36;;;;;;;4.63;4.13;;;12.00;99.90;;;;;;5098632;28;20453;-65
2021/05/18 05:24:04;;;;;;;5.07;4.13;;;11.90;99.90;;;;;;5098454;28;20457;-66
2021/05/18 05:26:31;;;;;;;5.30;4.80;;;11.80;99.90;;;;;;5098295;28;20464;-65
2021/05/18 05:28:57;;;;;;;6.30;5.30;;;11.70;99.90;;;;;;5098318;28;20902;-65
2021/05/18 05:31:24;;;;;;;5.43;4.50;;;11.60;99.90;;;;;;5098282;28;20520;-65
2021/05/18 05:33:50;;;;;;;6.93;4.77;;;11.50;99.90;;;;;;5098724;28;20460;-65
2021/05/18 05:36:16;;;;;;;5.50;4.60;;;11.50;99.90;;;;;;5098588;28;20528;-65
2021/05/18 05:38:44;;;;;;;6.27;5.00;;;11.50;99.90;;;;;;5098828;28;20492;-65
2021/05/18 05:41:11;;;;;;;5.93;5.20;;;11.50;99.90;;;;;;5099050;28;20923;-65
2021/05/18 05:43:37;;;;;;;7.30;5.17;;;11.40;99.90;;;;;;5098276;28;20840;-65
2021/05/18 05:46:04;;;;;;;6.20;5.27;;;11.40;99.90;;;;;;5099217;28;20472;-65
2021/05/18 05:48:30;;;;;;;9.90;5.47;;;11.50;99.90;;;;;;5099958;28;20479;-65
2021/05/18 05:50:56;;;;;;;6.10;5.17;;;11.40;99.90;;;;;;5102185;28;20457;-65
2021/05/18 05:53:22;;;;;;;6.73;5.90;;;11.50;99.90;;;;;;5102034;28;20562;-65
2021/05/18 05:55:49;;;;;;;6.50;5.37;;;11.50;99.90;;;;;;5098786;28;20456;-65
2021/05/18 05:58:16;;;;;;;7.30;5.57;;;11.60;99.90;;;;;;5097983;28;20481;-65
2021/05/18 06:00:43;;;;;;;7.30;6.00;;;11.70;99.90;;;;;;5098220;28;20522;-64
2021/05/18 06:03:09;;;;;;;6.93;5.87;;;11.70;99.90;;;;;;5098374;28;20453;-65
2021/05/18 06:05:35;;;;;;;7.20;5.80;;;11.80;99.90;;;;;;5098848;28;20456;-65
2021/05/18 06:08:01;;;;;;;6.63;5.93;;;11.90;99.90;;;;;;5097776;28;20464;-65
2021/05/18 06:10:30;;;;;;;5.60;5.10;;;11.90;99.90;;;;;;5098143;28;20453;-65
2021/05/18 06:13:16;;;;;;;5.97;5.17;;;12.00;99.90;;;;;;5098059;28;20457;-65
2021/05/18 06:43:18;;;;;;;9.23;8.20;;;12.80;99.90;;;;;;5097539;28;20540;-65
2021/05/18 06:48:30;;;;;;;11.40;8.77;;;12.80;99.90;;;;;;5097748;28;20515;-65
2021/05/18 06:50:56;;;;;;;9.50;8.60;;;12.80;99.90;;;;;;5096464;28;20528;-64
2021/05/18 06:53:22;;;;;;;9.40;8.17;;;12.80;99.90;;;;;;5097770;28;20510;-65
2021/05/18 06:55:50;;;;;;;10.33;8.80;;;12.90;99.90;;;;;;5097637;28;20464;-65
2021/05/18 06:58:35;;;;;;;10.00;9.00;;;12.90;99.90;;;;;;5097640;28;20481;-67
2021/05/18 07:01:01;;;;;;;10.30;9.20;;;13.00;99.90;;;;;;5098349;28;20495;-67
2021/05/18 07:03:33;;;;;;;11.33;10.20;;;12.90;99.90;;;;;;5100011;28;20934;-70
2021/05/18 07:06:07;;;;;;;10.20;9.20;;;12.90;99.90;;;;;;5098651;28;20615;-67
2021/05/18 07:11:21;;;;;;;12.73;9.80;;;12.90;99.90;;;;;;5090508;28;20471;-67
2021/05/18 07:13:47;;;;;;;12.80;10.23;;;12.90;99.90;;;;;;5097300;28;20457;-67
2021/05/18 07:16:13;;;;;;;11.47;10.30;;;12.90;99.90;;;;;;5096918;28;20819;-67
2021/05/18 07:18:39;;;;;;;11.87;10.40;;;13.00;99.90;;;;;;5096708;28;20493;-65
2021/05/18 07:21:07;;;;;;;11.53;9.73;;;13.10;99.90;;;;;;5096349;28;20486;-65
2021/05/18 07:23:34;;;;;;;12.93;9.70;;;13.10;99.90;;;;;;5096581;28;20457;-65
2021/05/18 07:26:00;;;;;;;11.40;9.63;;;13.20;99.90;;;;;;5096743;28;20465;-65
2021/05/18 07:28:31;;;;;;;10.30;9.23;;;13.20;99.90;;;;;;5097130;28;20457;-65
2021/05/18 07:30:58;;;;;;;10.37;9.27;;;13.20;99.90;;;;;;5096085;28;20525;-67
2021/05/18 07:33:24;;;;;;;12.00;10.80;;;13.20;99.90;;;;;;5095218;28;20965;-65
2021/05/18 07:35:55;;;;;;;10.90;9.23;;;13.20;99.90;;;;;;5095971;28;20465;-66
2021/05/18 07:38:23;;;;;;;12.20;9.70;;;13.30;99.90;;;;;;5096799;28;20532;-65
2021/05/18 07:40:49;;;;;;;10.83;9.73;;;13.30;99.90;;;;;;5096979;28;20453;-64
2021/05/18 07:43:17;;;;;;;10.27;9.27;;;13.20;99.90;;;;;;5096875;28;20941;-66
2021/05/18 07:45:52;;;;;;;10.70;9.60;;;13.30;99.90;;;;;;5096066;28;20453;-65
2021/05/18 07:48:23;;;;;;;11.20;9.60;;;13.30;99.90;;;;;;5096239;28;20434;-65
2021/05/18 07:50:54;;;;;;;14.87;9.70;;;13.30;99.90;;;;;;5096479;28;20445;-65
2021/05/18 08:07:03;;;;;;;11.10;8.90;;;13.80;99.90;;;;;;5096270;28;20497;-65
2021/05/18 08:09:30;;;;;;;9.67;8.67;;;13.80;99.90;;;;;;5096679;28;20454;-64
2021/05/18 08:11:57;;;;;;;10.87;9.30;;;13.80;99.90;;;;;;5097053;28;20457;-65
2021/05/18 08:14:25;;;;;;;10.13;8.77;;;13.80;99.90;;;;;;5096593;28;20945;-64
2021/05/18 08:17:00;;;;;;;10.30;9.03;;;13.60;99.90;;;;;;5096871;28;20506;-64
2021/05/18 10:36:29;;;;;;;14.10;7.00;;;13.90;99.90;;;;;;5104399;28;20512;-65
2021/05/18 10:39:14;;;;;;;6.60;5.60;;;13.90;99.90;;;;;;5104743;28;20203;-64
2021/05/18 10:41:42;;;;;;;7.30;6.13;;;13.90;99.90;;;;;;5105027;28;20438;-65
2021/05/18 10:44:08;;;;;;;8.77;6.53;;;13.80;99.90;;;;;;5104844;28;20459;-64
2021/05/18 10:46:51;;;;;;;8.60;6.13;;;13.60;99.90;;;;;;5104681;28;20449;-64
2021/05/18 10:49:32;;;;;;;7.33;5.53;;;13.50;99.90;;;;;;5099581;28;20499;-64
2021/05/18 10:52:00;;;;;;;6.87;5.07;;;13.40;99.90;;;;;;5102763;28;20955;-65
2021/05/18 10:54:34;;;;;;;6.07;4.60;;;13.40;99.90;;;;;;5102781;28;20555;-65
2021/05/18 10:57:30;;;;;;;7.50;5.80;;;13.40;99.90;;;;;;5102760;28;20508;-65
2021/05/18 10:59:58;;;;;;;6.73;5.63;;;13.30;99.90;;;;;;5105649;28;20560;-65
2021/05/18 11:02:31;;;;;;;8.63;6.30;;;13.30;99.90;;;;;;5105252;28;20530;-64
2021/05/18 11:05:00;;;;;;;10.17;6.33;;;13.20;99.90;;;;;;5105135;28;20441;-65
2021/05/18 11:07:31;;;;;;;8.20;5.90;;;13.10;99.90;;;;;;5104582;28;20486;-65
2021/05/18 11:09:58;;;;;;;7.10;6.07;;;13.10;99.90;;;;;;5110809;28;20468;-65
2021/05/18 11:12:25;;;;;;;7.20;6.10;;;13.10;99.90;;;;;;5105745;28;20450;-65
2021/05/18 11:15:05;;;;;;;6.67;5.80;;;13.20;99.90;;;;;;5104062;28;20506;-64
2021/05/18 11:17:34;;;;;;;9.10;5.83;;;13.30;99.90;;;;;;5104109;28;20437;-65
2021/05/18 11:20:05;;;;;;;8.40;5.77;;;13.40;99.90;;;;;;5105247;28;20515;-68
2021/05/18 11:23:22;;;;;;;6.63;5.70;;;13.50;99.90;;;;;;5102411;28;20438;-68
2021/05/18 11:25:52;;;;;;;6.63;5.40;;;13.50;99.90;;;;;;5039787;28;20456;-67
2021/05/18 11:28:24;;;;;;;7.03;5.50;;;13.50;99.90;;;;;;5098398;28;20441;-67
2021/05/18 11:30:53;;;;;;;10.93;5.90;;;13.70;99.90;;;;;;5103083;28;20449;-67
2021/05/18 11:33:20;;;;;;;7.73;6.93;;;14.10;99.90;;;;;;5102147;28;20477;-67
2021/05/18 11:36:03;;;;;;;8.80;5.00;;;14.70;99.90;;;;;;5102670;28;20464;-66
2021/05/18 11:38:30;;;;;;;6.63;5.60;;;15.50;99.90;;;;;;5104076;28;20472;-67
2021/05/18 11:40:57;;;;;;;5.30;4.77;;;16.00;99.90;;;;;;5103900;28;20449;-68
2021/05/18 11:43:25;;;;;;;6.97;4.77;;;16.40;99.90;;;;;;5103784;28;20453;-69
2021/05/18 11:46:02;;;;;;;6.20;5.07;;;16.60;99.90;;;;;;5104674;28;20929;-67
2021/05/18 11:48:28;;;;;;;7.13;6.03;;;16.90;99.90;;;;;;5101644;28;20445;-69
2021/05/18 11:51:07;;;;;;;9.30;6.30;;;17.50;99.90;;;;;;5102427;28;20514;-67
2021/05/18 11:53:37;;;;;;;6.40;5.77;;;17.50;99.90;;;;;;5102228;28;20473;-69
2021/05/18 11:56:16;;;;;;;6.70;5.30;;;17.50;99.90;;;;;;5099650;28;20514;-68
2021/05/18 11:58:43;;;;;;;9.37;6.10;;;17.40;99.90;;;;;;5099986;28;20476;-68
2021/05/18 12:01:10;;;;;;;6.53;5.77;;;17.10;99.90;;;;;;5099706;28;20755;-67
2021/05/18 12:03:39;;;;;;;6.40;5.53;;;16.90;99.90;;;;;;5099469;28;20608;-67
2021/05/18 12:06:07;;;;;;;5.93;5.33;;;16.80;99.90;;;;;;5099179;28;20457;-67
2021/05/18 12:08:35;;;;;;;8.90;5.00;;;16.70;99.90;;;;;;5098974;28;20866;-67
2021/05/18 12:11:15;;;;;;;6.10;4.50;;;16.50;99.90;;;;;;5098991;28;20454;-67
2021/05/18 12:13:42;;;;;;;6.47;4.53;;;16.30;99.90;;;;;;5100438;28;20449;-67
2021/05/18 12:16:11;;;;;;;5.23;4.63;;;16.40;99.90;;;;;;5099736;28;20484;-67
2021/05/18 12:18:39;;;;;;;7.80;5.10;;;16.30;99.90;;;;;;5097681;28;20474;-67
2021/05/18 12:21:08;;;;;;;10.73;5.50;;;16.20;99.90;;;;;;5097934;28;20453;-67
2021/05/18 12:23:35;;;;;;;7.10;5.17;;;16.10;99.90;;;;;;5098804;28;20518;-67
2021/05/18 12:26:16;;;;;;;7.57;5.53;;;16.30;99.90;;;;;;5099102;28;20466;-66
2021/05/18 12:28:59;;;;;;;8.10;4.97;;;16.60;99.90;;;;;;5099648;28;20433;-67
2021/05/18 12:31:30;;;;;;;5.83;4.13;;;16.70;99.90;;;;;;5097622;28;20457;-69
2021/05/18 12:33:57;;;;;;;4.97;3.97;;;17.00;99.90;;;;;;5100515;28;20472;-69
2021/05/18 12:36:23;;;;;;;7.70;4.57;;;17.10;99.90;;;;;;5104154;28;20467;-70
2021/05/18 12:39:09;;;;;;;7.70;4.10;;;17.10;99.90;;;;;;5101407;28;20611;-69
2021/05/18 12:41:57;;;;;;;8.50;3.30;;;17.00;99.90;;;;;;5104130;28;20457;-68
2021/05/18 12:44:25;;;;;;;5.13;2.77;;;16.90;99.90;;;;;;5103198;28;20446;-69
2021/05/18 12:47:04;;;;;;;3.97;2.70;;;16.80;99.90;;;;;;5103574;28;20457;-69
2021/05/18 12:49:35;;;;;;;5.03;2.87;;;16.70;99.90;;;;;;5103575;28;20525;-70
2021/05/18 12:52:07;;;;;;;5.00;2.90;;;16.60;99.90;;;;;;5102211;28;20491;-69
2021/05/18 12:54:42;;;;;;;4.80;3.00;;;16.50;99.90;;;;;;5102791;28;20519;-69
2021/05/18 12:57:10;;;;;;;8.33;2.87;;;16.30;99.90;;;;;;5103291;28;20463;-68
2021/05/18 12:59:59;;;;;;;7.70;3.37;;;16.10;99.90;;;;;;5102688;28;20485;-70
2021/05/18 13:02:32;;;;;;;4.10;3.10;;;16.00;99.90;;;;;;5102845;28;20442;-68
2021/05/18 13:05:21;;;;;;;6.10;3.47;;;15.90;99.90;;;;;;5103281;28;20828;-69
2021/05/18 13:08:10;;;;;;;6.43;3.57;;;15.90;99.90;;;;;;5100248;28;20937;-70
2021/05/18 13:10:43;;;;;;;4.20;2.87;;;16.00;99.90;;;;;;5105022;28;20453;-70
2021/05/18 13:13:10;;;;;;;4.37;3.50;;;16.00;99.90;;;;;;5105150;28;20433;-69
2021/05/18 13:15:38;;;;;;;6.17;3.23;;;15.90;99.90;;;;;;5103165;28;20528;-69
2021/05/18 13:18:06;;;;;;;5.60;3.23;;;15.90;99.90;;;;;;5104576;28;20456;-69
2021/05/18 13:20:44;;;;;;;5.13;3.30;;;15.80;99.90;;;;;;5104530;28;20551;-69
2021/05/18 13:23:16;;;;;;;4.80;3.70;;;15.70;99.90;;;;;;5101676;28;20531;-69
2021/05/18 13:28:26;;;;;;;4.80;2.73;;;15.60;99.90;;;;;;5102909;28;20444;-70
2021/05/18 13:30:53;;;;;;;3.50;2.80;;;15.50;99.90;;;;;;5101484;28;20457;-70
2021/05/18 13:33:20;;;;;;;6.27;3.13;;;15.60;99.90;;;;;;5104145;28;20833;-70
2021/05/18 13:35:46;;;;;;;5.47;3.30;;;15.70;99.90;;;;;;5103577;28;20509;-67
2021/05/18 13:38:12;;;;;;;5.30;2.67;;;15.80;99.90;;;;;;5103778;28;20453;-68
2021/05/18 13:40:39;;;;;;;3.73;2.50;;;15.80;99.90;;;;;;5103730;28;20468;-67
2021/05/18 13:43:05;;;;;;;6.10;2.80;;;16.00;99.90;;;;;;5106372;28;20453;-67
2021/05/18 13:45:32;;;;;;;3.43;2.70;;;16.20;99.90;;;;;;5105812;28;20461;-66
2021/05/18 13:47:58;;;;;;;4.00;2.37;;;16.40;99.90;;;;;;5104215;28;20453;-67
2021/05/18 13:50:27;;;;;;;4.23;2.50;;;16.60;99.90;;;;;;5102936;28;20552;-67
2021/05/18 13:52:54;;;;;;;4.70;2.77;;;16.80;99.90;;;;;;5106247;28;20526;-67
2021/05/18 13:55:20;;;;;;;3.30;2.00;;;17.10;99.90;;;;;;5104166;28;20453;-67
2021/05/18 13:57:47;;;;;;;3.73;2.43;;;17.40;99.90;;;;;;5103412;28;20456;-67
2021/05/18 14:00:16;;;;;;;4.47;2.63;;;17.80;99.90;;;;;;5103543;28;20499;-67
2021/05/18 14:02:43;;;;;;;3.00;2.30;;;18.10;99.90;;;;;;5103546;28;20940;-67
2021/05/18 14:05:13;;;;;;;4.77;2.97;;;18.30;99.90;;;;;;5100843;28;20483;-69
2021/05/18 14:08:15;;;;;;;4.00;2.43;;;18.50;99.90;;;;;;5098784;28;20754;-69
2021/05/18 14:10:42;;;;;;;3.73;2.17;;;18.50;99.90;;;;;;5098997;28;20463;-69
2021/05/18 14:13:08;;;;;;;2.97;1.73;;;18.60;99.90;;;;;;5098311;28;20457;-69
2021/05/18 14:15:35;;;;;;;3.50;2.50;;;18.70;99.90;;;;;;5098143;28;20457;-70
2021/05/18 14:18:01;;;;;;;4.90;1.90;;;19.20;99.90;;;;;;5097931;28;20454;-69
2021/05/18 14:20:27;;;;;;;1.83;1.63;;;19.80;99.90;;;;;;5097960;28;20481;-69
2021/05/18 14:22:53;;;;;;;1.77;1.43;;;20.00;99.90;;;;;;5100219;28;20472;-68
2021/05/18 14:25:20;;;;;;;2.57;1.80;;;20.40;1.00;;;;;;5100628;28;20468;-69
2021/05/18 14:27:47;;;;;;;4.60;1.70;;;20.90;1.00;;;;;;5097818;28;20458;-69
2021/05/18 14:30:14;;;;;;;2.37;1.40;;;21.00;1.00;;;;;;5097852;28;20977;-70
2021/05/18 14:32:42;;;;;;;2.33;1.70;;;20.90;1.00;;;;;;5097782;28;20477;-70
2021/05/18 14:35:11;;;;;;;3.00;2.17;;;20.60;1.00;;;;;;5097713;28;20505;-69
2021/05/18 14:37:38;;;;;;;3.20;1.90;;;20.20;1.00;;;;;;5097832;28;20469;-70
2021/05/18 14:40:11;;;;;;;2.43;1.83;;;19.50;1.00;;;;;;5098127;28;20491;-68
2021/05/18 14:42:51;;;;;;;2.40;1.67;;;19.10;1.00;;;;;;5098561;28;20584;-69
2021/05/18 14:45:22;;;;;;;2.80;2.00;;;18.90;1.00;;;;;;5097571;28;20461;-70
2021/05/18 14:48:10;;;;;;;3.77;1.67;;;18.70;1.00;;;;;;5098427;28;20438;-68
2021/05/18 14:53:52;;;;;;;3.13;2.10;;;18.40;1.00;;;;;;5022487;28;20491;-69
2021/05/18 14:56:18;;;;;;;4.10;1.80;;;18.30;1.00;;;;;;5097765;28;20769;-70
2021/05/18 14:58:45;;;;;;;3.50;1.70;;;18.20;1.00;;;;;;5097517;28;20505;-69
2021/05/18 15:01:11;;;;;;;1.80;1.60;;;18.20;1.00;;;;;;5097364;28;20763;-69
2021/05/18 15:03:38;;;;;;;3.30;2.00;;;18.20;1.00;;;;;;5097673;28;20784;-69
2021/05/18 15:06:04;;;;;;;5.23;1.90;;;18.20;1.00;;;;;;5097496;28;20457;-69
2021/05/18 15:08:30;;;;;;;2.37;1.47;;;18.30;1.00;;;;;;5097610;28;21029;-70
2021/05/18 15:11:01;;;;;;;3.00;1.70;;;18.50;1.00;;;;;;5096868;28;20939;-69
2021/05/18 15:13:27;;;;;;;2.33;1.90;;;18.60;1.00;;;;;;5097264;28;20442;-70
2021/05/18 15:15:55;;;;;;;2.40;1.60;;;18.60;1.00;;;;;;5096624;28;20518;-68
2021/05/18 15:18:21;;;;;;;3.33;1.73;;;18.50;1.00;;;;;;5096414;28;20457;-69
2021/05/18 15:20:47;;;;;;;3.73;1.90;;;18.40;1.00;;;;;;5096515;28;20475;-69
2021/05/18 15:23:14;;;;;;;1.83;1.73;;;18.30;1.00;;;;;;5096652;28;20453;-69
2021/05/18 15:25:40;;;;;;;2.27;2.07;;;18.10;1.00;;;;;;5096198;28;20465;-69
2021/05/18 15:28:07;;;;;;;5.60;2.93;;;18.00;1.00;;;;;;5096177;28;20495;-70
2021/05/18 15:30:33;;;;;;;4.90;2.40;;;17.80;1.00;;;;;;5096029;28;20465;-70
2021/05/18 15:33:00;;;;;;;3.40;2.30;;;17.70;1.00;;;;;;5096166;28;20477;-70
2021/05/18 15:35:26;;;;;;;3.40;2.00;;;17.60;1.00;;;;;;5096300;28;20458;-70
2021/05/18 15:37:52;;;;;;;3.00;1.87;;;17.50;1.00;;;;;;5095978;28;20468;-70
2021/05/18 15:40:19;;;;;;;4.53;2.60;;;17.40;1.00;;;;;;5095390;28;20482;-70
2021/05/18 15:42:45;;;;;;;3.23;1.67;;;17.30;1.00;;;;;;5095566;28;20571;-69
2021/05/18 15:45:12;;;;;;;3.13;1.80;;;17.20;1.00;;;;;;5095945;28;20465;-69
2021/05/18 15:47:39;;;;;;;3.77;1.80;;;17.10;1.00;;;;;;5095869;28;20457;-70
2021/05/18 15:50:08;;;;;;;4.13;1.90;;;17.00;1.00;;;;;;5095698;28;20782;-69
2021/05/18 15:52:34;;;;;;;1.97;1.60;;;16.90;1.00;;;;;;5095492;28;20487;-69
2021/05/18 15:55:01;;;;;;;3.90;2.60;;;16.90;1.00;;;;;;5095475;28;20473;-69
2021/05/18 15:57:27;;;;;;;3.80;3.23;;;16.90;1.00;;;;;;5096389;28;20463;-69
2021/05/18 15:59:53;;;;;;;3.10;1.80;;;17.00;1.00;;;;;;5095698;28;20477;-69
2021/05/18 16:02:19;;;;;;;2.13;1.90;;;17.00;1.00;;;;;;5095579;28;20464;-69
2021/05/18 16:04:46;;;;;;;3.30;2.00;;;17.00;1.00;;;;;;5095171;28;20453;-69
2021/05/18 16:07:15;;;;;;;2.20;1.73;;;17.10;1.00;;;;;;5096012;28;20457;-69
2021/05/18 16:09:41;;;;;;;2.73;1.90;;;17.10;1.00;;;;;;5095841;28;20445;-69
2021/05/18 16:12:09;;;;;;;3.23;1.90;;;17.10;1.00;;;;;;5095800;28;20458;-71
2021/05/18 16:14:35;;;;;;;4.47;1.90;;;17.20;1.00;;;;;;5096219;28;20457;-69
2021/05/18 16:17:02;;;;;;;4.63;2.43;;;17.20;1.00;;;;;;5096295;28;20454;-70
2021/05/18 16:19:29;;;;;;;4.53;2.10;;;17.20;1.00;;;;;;5096725;28;20481;-70
2021/05/18 16:21:55;;;;;;;1.97;1.77;;;17.20;1.00;;;;;;5095661;28;20457;-70
2021/05/18 16:24:25;;;;;;;2.63;1.90;;;17.20;1.00;;;;;;5095957;28;20461;-70
2021/05/18 16:26:53;;;;;;;5.30;1.60;;;17.20;1.00;;;;;;5096411;28;20468;-69
2021/05/18 16:29:19;;;;;;;2.53;1.50;;;17.20;1.00;;;;;;5096667;28;20461;-69
2021/05/18 16:31:46;;;;;;;2.70;1.80;;;17.20;1.00;;;;;;5096018;28;20578;-74
2021/05/18 16:34:12;;;;;;;2.33;1.90;;;17.20;1.00;;;;;;5096052;28;20727;-72
2021/05/18 16:36:38;;;;;;;2.90;1.70;;;17.10;1.00;;;;;;5096114;28;20465;-72
2021/05/18 16:39:07;;;;;;;2.43;1.60;;;17.00;1.00;;;;;;5096511;28;20534;-71
2021/05/18 16:41:36;;;;;;;2.40;1.73;;;17.00;1.00;;;;;;5095940;28;20526;-71
2021/05/18 16:44:04;;;;;;;3.00;1.47;;;17.00;1.00;;;;;;5096248;28;20518;-69
2021/05/18 16:46:30;;;;;;;2.40;1.40;;;16.90;1.00;;;;;;5095635;28;20457;-69
2021/05/18 16:48:56;;;;;;;1.97;1.40;;;16.90;1.00;;;;;;5095209;28;20493;-70
2021/05/18 16:51:22;;;;;;;1.97;1.40;;;16.80;1.00;;;;;;5095186;28;20464;-70
2021/05/18 16:53:53;;;;;;;1.97;1.83;;;16.70;1.00;;;;;;5095930;28;20457;-71
2021/05/18 16:56:20;;;;;;;1.70;1.50;;;16.50;1.00;;;;;;5095801;28;20540;-71
2021/05/18 16:58:49;;;;;;;3.77;1.93;;;16.50;1.00;;;;;;5095024;28;20489;-70
2021/05/18 17:01:16;;;;;;;2.37;1.50;;;16.50;1.00;;;;;;5094445;28;20547;-70
2021/05/18 17:03:45;;;;;;;4.00;1.70;;;16.50;1.00;;;;;;5094699;28;20453;-70
2021/05/18 17:06:11;;;;;;;2.77;1.43;;;16.50;1.00;;;;;;5095776;28;20457;-72
2021/05/18 17:08:38;;;;;;;1.67;1.40;;;16.50;1.00;;;;;;5099259;28;20514;-69
2021/05/18 17:11:04;;;;;;;2.40;2.03;;;16.50;1.00;;;;;;5099463;28;20457;-71
2021/05/18 17:13:30;;;;;;;5.37;2.37;;;16.50;1.00;;;;;;5098926;28;20461;-71
2021/05/18 17:15:57;;;;;;;4.10;2.57;;;16.30;1.00;;;;;;5098773;28;20453;-71
2021/05/18 17:18:24;;;;;;;3.23;2.63;;;16.30;1.00;;;;;;5098996;28;20551;-70
2021/05/18 17:20:50;;;;;;;6.10;2.60;;;16.30;1.00;;;;;;5098793;28;20461;-71
2021/05/18 17:23:16;;;;;;;4.57;3.27;;;16.30;1.00;;;;;;5098729;28;20817;-70